createdAt,value
2019-04-20T00:00:59.607Z,6.73
2019-04-20T00:03:34.999Z,6.80
2019-04-20T00:06:01.346Z,6.63
2019-04-20T00:08:34.510Z,7.20
2019-04-20T00:11:09.318Z,7.20
2019-04-20T00:13:43.825Z,6.90
2019-04-20T00:16:04.274Z,7.37
2019-04-20T00:18:41.098Z,7.40
2019-04-20T00:21:22.753Z,7.37
2019-04-20T00:23:55.064Z,7.83
2019-04-20T00:27:02.023Z,7.93
2019-04-20T00:29:21.596Z,8.00
2019-04-20T00:31:47.801Z,7.87
2019-04-20T00:34:13.082Z,7.20
2019-04-20T00:36:34.915Z,7.07
2019-04-20T00:39:08.115Z,8.17
2019-04-20T00:41:44.147Z,8.03
2019-04-20T00:44:13.028Z,8.00
2019-04-20T00:46:51.139Z,8.10
2019-04-20T00:49:25.450Z,7.53
2019-04-20T00:52:10.748Z,8.60
2019-04-20T00:54:13.691Z,8.33
2019-04-20T00:56:43.365Z,8.07
2019-04-20T00:59:25.980Z,8.23
2019-04-20T01:02:03.695Z,8.30
2019-04-20T01:04:38.875Z,8.60
2019-04-20T01:07:23.351Z,8.50
2019-04-20T01:10:00.484Z,8.40
2019-04-20T01:12:33.804Z,8.93
2019-04-20T01:15:05.567Z,9.10
2019-04-20T01:17:32.461Z,8.73
2019-04-20T01:20:01.847Z,8.30
2019-04-20T01:22:42.742Z,8.87
2019-04-20T01:25:11.201Z,8.47
2019-04-20T01:27:51.541Z,8.57
2019-04-20T01:30:20.105Z,8.57
2019-04-20T01:32:55.332Z,8.77
2019-04-20T01:35:24.778Z,8.77
2019-04-20T01:38:01.172Z,8.70
2019-04-20T01:40:13.055Z,8.80
2019-04-20T01:42:42.688Z,8.57
2019-04-20T01:45:18.020Z,9.00
2019-04-20T01:47:48.879Z,8.30
2019-04-20T01:50:21.179Z,7.80
2019-04-20T01:52:58.026Z,8.53
2019-04-20T01:55:41.487Z,8.83
2019-04-20T01:58:37.769Z,7.60
2019-04-20T02:01:13.580Z,7.80
2019-04-20T02:03:47.132Z,7.87
2019-04-20T02:06:18.828Z,7.87
2019-04-20T02:08:51.724Z,7.57
2019-04-20T02:11:25.596Z,7.80
2019-04-20T02:13:55.992Z,7.97
2019-04-20T02:16:28.609Z,7.83
2019-04-20T02:19:09.287Z,7.90
2019-04-20T02:21:45.295Z,7.20
2019-04-20T02:24:02.320Z,7.93
2019-04-20T02:26:30.115Z,7.63
2019-04-20T02:29:24.877Z,8.00
2019-04-20T02:32:13.725Z,7.30
2019-04-20T02:34:57.822Z,7.10
2019-04-20T02:38:03.043Z,6.63
2019-04-20T02:40:39.757Z,7.77
2019-04-20T02:45:36.627Z,8.43
2019-04-20T02:48:06.574Z,10.07
2019-04-20T02:50:36.454Z,8.90
2019-04-20T02:53:13.714Z,9.47
2019-04-20T02:55:41.825Z,8.73
2019-04-20T03:00:29.717Z,8.43
2019-04-20T03:02:53.078Z,8.40
2019-04-20T03:05:23.684Z,8.20
2019-04-20T03:08:03.542Z,8.10
2019-04-20T03:10:43.086Z,8.00
2019-04-20T03:13:10.599Z,8.53
2019-04-20T03:15:38.178Z,7.60
2019-04-20T03:18:09.764Z,7.50
2019-04-20T03:20:41.742Z,7.90
2019-04-20T03:23:26.503Z,7.90
2019-04-20T03:26:05.398Z,8.20
2019-04-20T03:28:54.204Z,8.10
2019-04-20T03:34:35.736Z,8.17
2019-04-20T03:36:42.620Z,9.13
2019-04-20T03:39:06.425Z,8.80
2019-04-20T03:41:24.515Z,7.73
2019-04-20T03:43:45.751Z,8.63
2019-04-20T03:46:19.168Z,8.33
2019-04-20T03:48:59.807Z,8.13
2019-04-20T03:51:39.781Z,8.23
2019-04-20T03:54:13.181Z,8.70
2019-04-20T03:57:12.490Z,8.77
2019-04-20T03:59:41.298Z,7.90
2019-04-20T04:03:02.781Z,9.17
2019-04-20T04:05:38.161Z,9.00
2019-04-20T04:08:05.140Z,8.63
2019-04-20T04:10:40.979Z,8.63
2019-04-20T04:13:12.035Z,9.23
2019-04-20T04:15:51.327Z,9.70
2019-04-20T04:18:24.671Z,8.90
2019-04-20T04:20:56.554Z,9.23
2019-04-20T04:23:36.616Z,9.00
2019-04-20T04:26:08.539Z,7.93
2019-04-20T04:28:42.367Z,9.33
2019-04-20T04:31:11.926Z,8.97
2019-04-20T04:33:55.949Z,9.50
2019-04-20T04:36:14.037Z,8.90
2019-04-20T04:38:51.799Z,8.50
2019-04-20T04:41:24.017Z,9.07
2019-04-20T04:43:55.211Z,9.43
2019-04-20T04:46:01.825Z,9.77
2019-04-20T04:48:37.519Z,9.63
2019-04-20T04:51:12.886Z,10.90
2019-04-20T04:53:46.715Z,10.17
2019-04-20T04:56:11.677Z,10.10
2019-04-20T04:58:38.442Z,9.80
2019-04-20T05:01:14.806Z,10.00
2019-04-20T05:04:02.878Z,9.90
2019-04-20T05:06:34.423Z,10.17
2019-04-20T05:08:58.489Z,10.53
2019-04-20T05:11:25.748Z,10.80
2019-04-20T05:14:03.092Z,9.73
2019-04-20T05:16:46.052Z,10.00
2019-04-20T05:19:19.323Z,10.27
2019-04-20T05:24:56.915Z,11.17
2019-04-20T05:27:46.677Z,11.57
2019-04-20T05:29:57.005Z,11.23
2019-04-20T05:32:36.140Z,11.20
2019-04-20T05:35:23.759Z,10.67
2019-04-20T05:37:59.552Z,10.83
2019-04-20T05:40:23.353Z,10.57
2019-04-20T05:42:52.359Z,11.17
2019-04-20T05:45:21.994Z,11.60
2019-04-20T05:47:55.219Z,11.30
2019-04-20T05:50:31.582Z,11.37
2019-04-20T05:55:35.975Z,11.53
2019-04-20T05:58:10.087Z,10.87
2019-04-20T06:00:40.620Z,10.80
2019-04-20T06:03:05.665Z,15.07
2019-04-20T06:05:45.925Z,10.60
2019-04-20T06:08:15.318Z,8.77
2019-04-20T06:10:45.572Z,7.80
2019-04-20T06:13:17.536Z,7.63
2019-04-20T06:16:01.385Z,7.60
2019-04-20T06:18:38.102Z,7.93
2019-04-20T06:21:23.846Z,9.90
2019-04-20T06:23:56.472Z,8.23
2019-04-20T06:26:44.232Z,8.40
2019-04-20T06:28:51.976Z,7.30
2019-04-20T06:31:31.301Z,7.90
2019-04-20T06:36:54.266Z,7.10
2019-04-20T06:39:30.936Z,7.03
2019-04-20T06:42:09.878Z,6.70
2019-04-20T06:44:32.129Z,7.00
2019-04-20T06:49:33.196Z,8.00
2019-04-20T06:52:21.648Z,7.70
2019-04-20T06:55:05.459Z,7.23
2019-04-20T06:57:43.148Z,8.30
2019-04-20T07:00:15.523Z,8.00
2019-04-20T07:02:44.699Z,7.07
2019-04-20T07:05:22.357Z,6.57
2019-04-20T07:07:50.461Z,6.17
2019-04-20T07:10:19.376Z,7.30
2019-04-20T07:12:45.038Z,8.07
2019-04-20T07:15:17.724Z,6.20
2019-04-20T07:17:57.649Z,5.50
2019-04-20T07:20:46.308Z,5.20
2019-04-20T07:23:18.249Z,4.90
2019-04-20T07:25:42.249Z,5.07
2019-04-20T07:28:12.888Z,5.03
2019-04-20T07:30:43.696Z,4.90
2019-04-20T07:33:15.706Z,4.70
2019-04-20T07:35:41.749Z,4.97
2019-04-20T07:40:47.311Z,4.83
2019-04-20T07:43:17.161Z,5.47
2019-04-20T07:45:44.252Z,5.13
2019-04-20T07:48:21.199Z,4.90
2019-04-20T07:50:40.819Z,5.10
2019-04-20T07:53:18.277Z,5.10
2019-04-20T07:55:54.056Z,4.57
2019-04-20T07:58:19.814Z,4.50
2019-04-20T08:01:09.053Z,7.13
2019-04-20T08:03:47.097Z,4.67
2019-04-20T08:06:15.670Z,4.80
2019-04-20T08:08:55.710Z,4.10
2019-04-20T08:11:27.246Z,4.80
2019-04-20T08:14:05.891Z,4.53
2019-04-20T08:16:41.091Z,4.40
2019-04-20T08:18:59.765Z,4.20
2019-04-20T08:21:39.156Z,4.07
2019-04-20T08:24:02.592Z,4.13
2019-04-20T08:26:23.516Z,4.07
2019-04-20T08:28:56.925Z,3.83
2019-04-20T08:31:51.453Z,3.83
2019-04-20T08:34:31.307Z,4.33
2019-04-20T08:37:01.069Z,4.23
2019-04-20T08:42:00.419Z,4.50
2019-04-20T08:47:14.859Z,4.43
2019-04-20T08:49:45.474Z,5.00
2019-04-20T08:54:34.485Z,4.07
2019-04-20T08:56:53.651Z,5.07
2019-04-20T08:59:21.086Z,4.13
2019-04-20T09:01:51.106Z,4.60
2019-04-20T09:04:33.014Z,4.30
2019-04-20T09:07:04.228Z,4.27
2019-04-20T09:09:49.436Z,3.90
2019-04-20T09:12:11.553Z,3.90
2019-04-20T09:14:28.231Z,4.20
2019-04-20T09:17:07.079Z,4.37
2019-04-20T09:19:41.718Z,4.43
2019-04-20T09:22:32.263Z,4.60
2019-04-20T09:25:25.058Z,4.50
2019-04-20T09:27:33.987Z,5.00
2019-04-20T09:30:13.729Z,3.93
2019-04-20T09:32:45.311Z,4.70
2019-04-20T09:35:20.565Z,5.77
2019-04-20T09:37:57.147Z,3.97
2019-04-20T09:40:30.996Z,5.20
2019-04-20T09:42:57.187Z,5.00
2019-04-20T09:45:39.940Z,5.57
2019-04-20T09:48:15.790Z,4.53
2019-04-20T09:51:00.876Z,4.33
2019-04-20T09:53:24.753Z,4.40
2019-04-20T09:55:59.017Z,4.80
2019-04-20T09:58:21.316Z,3.90
2019-04-20T10:00:58.241Z,4.10
2019-04-20T10:03:16.543Z,4.10
2019-04-20T10:05:47.456Z,4.03
2019-04-20T10:08:17.603Z,4.50
2019-04-20T10:10:48.937Z,4.73
2019-04-20T10:13:19.547Z,6.50
2019-04-20T10:15:50.011Z,4.63
2019-04-20T10:18:19.780Z,4.10
2019-04-20T10:20:49.588Z,4.70
2019-04-20T10:23:20.471Z,4.60
2019-04-20T10:25:50.889Z,4.37
2019-04-20T10:28:21.535Z,4.23
2019-04-20T10:30:51.055Z,4.40
2019-04-20T10:33:21.645Z,4.47
2019-04-20T10:35:51.838Z,5.10
2019-04-20T10:38:25.514Z,9.00
2019-04-20T10:41:05.356Z,6.43
2019-04-20T10:43:26.174Z,4.53
2019-04-20T10:45:57.094Z,4.40
2019-04-20T10:48:27.020Z,4.50
2019-04-20T10:50:56.895Z,4.97
2019-04-20T10:53:26.388Z,4.10
2019-04-20T10:55:55.793Z,4.30
2019-04-20T10:58:25.331Z,4.20
2019-04-20T11:00:55.733Z,4.20
2019-04-20T11:03:25.186Z,3.93
2019-04-20T11:05:54.834Z,4.37
2019-04-20T11:08:24.524Z,4.20
2019-04-20T11:11:03.421Z,3.87
2019-04-20T11:13:25.571Z,17.07
2019-04-20T11:15:55.052Z,4.33
2019-04-20T11:18:25.059Z,4.00
2019-04-20T11:20:55.341Z,4.23
2019-04-20T11:23:24.808Z,4.03
2019-04-20T11:25:54.173Z,4.17
2019-04-20T11:28:24.032Z,4.03
2019-04-20T11:30:54.262Z,3.83
2019-04-20T11:33:24.546Z,4.20
2019-04-20T11:35:54.949Z,3.80
2019-04-20T11:38:24.488Z,4.00
2019-04-20T11:41:06.278Z,3.97
2019-04-20T11:43:26.054Z,3.70
2019-04-20T11:45:56.535Z,3.80
2019-04-20T11:48:25.934Z,4.30
2019-04-20T11:50:55.839Z,4.10
2019-04-20T11:53:26.877Z,3.97
2019-04-20T11:55:56.530Z,4.07
2019-04-20T11:58:26.154Z,4.17
2019-04-20T12:01:06.251Z,4.00
2019-04-20T12:03:32.801Z,5.13
2019-04-20T12:06:01.638Z,4.00
2019-04-20T12:08:32.155Z,3.73
2019-04-20T12:11:12.017Z,3.67
2019-04-20T12:13:32.240Z,3.90
2019-04-20T12:16:01.682Z,3.67
2019-04-20T12:18:31.667Z,5.80
2019-04-20T12:21:01.190Z,4.23
2019-04-20T12:23:30.699Z,5.33
2019-04-20T12:26:00.214Z,3.77
2019-04-20T12:28:29.702Z,3.83
2019-04-20T12:31:05.276Z,3.70
2019-04-20T12:33:30.655Z,3.70
2019-04-20T12:36:00.504Z,3.67
2019-04-20T12:38:30.791Z,4.00
2019-04-20T12:41:03.142Z,3.70
2019-04-20T12:43:31.905Z,3.60
2019-04-20T12:46:02.240Z,4.07
2019-04-20T12:48:31.864Z,3.70
2019-04-20T12:51:01.645Z,3.97
2019-04-20T12:53:32.753Z,3.67
2019-04-20T12:56:02.367Z,3.60
2019-04-20T12:58:32.546Z,3.47
2019-04-20T13:01:02.575Z,3.93
2019-04-20T13:03:31.995Z,3.70
2019-04-20T13:06:01.847Z,3.40
2019-04-20T13:08:36.888Z,3.80
2019-04-20T13:11:10.968Z,4.17
2019-04-20T13:13:52.409Z,3.80
2019-04-20T13:16:28.148Z,3.70
2019-04-20T13:19:03.527Z,3.87
2019-04-20T13:21:33.198Z,3.57
2019-04-20T13:24:03.256Z,3.80
2019-04-20T13:26:33.288Z,6.63
2019-04-20T13:29:02.847Z,4.10
2019-04-20T13:31:33.538Z,4.70
2019-04-20T13:34:03.679Z,4.67
2019-04-20T13:36:34.457Z,3.40
2019-04-20T13:39:06.023Z,3.60
2019-04-20T13:41:35.772Z,3.40
2019-04-20T13:44:06.577Z,3.50
2019-04-20T13:46:36.843Z,3.50
2019-04-20T13:49:07.008Z,3.60
2019-04-20T13:51:37.063Z,3.60
2019-04-20T13:54:13.240Z,3.30
2019-04-20T13:56:38.048Z,3.60
2019-04-20T13:59:12.852Z,3.70
2019-04-20T14:02:08.907Z,3.53
2019-04-20T14:04:42.743Z,3.63
2019-04-20T14:07:15.064Z,4.40
2019-04-20T14:09:43.665Z,3.77
2019-04-20T14:12:22.472Z,3.67
2019-04-20T14:14:44.447Z,3.65
2019-04-20T14:17:15.049Z,3.73
2019-04-20T14:19:45.226Z,3.47
2019-04-20T14:22:15.254Z,3.70
2019-04-20T14:24:46.848Z,3.60
2019-04-20T14:27:17.098Z,3.60
2019-04-20T14:29:46.616Z,3.45
2019-04-20T14:32:16.832Z,3.43
2019-04-20T14:34:47.070Z,3.83
2019-04-20T14:37:17.163Z,4.53
2019-04-20T14:39:47.982Z,4.40
2019-04-20T14:42:27.859Z,4.00
2019-04-20T14:44:49.983Z,3.92
2019-04-20T14:47:19.688Z,3.42
2019-04-20T14:49:49.069Z,3.60
2019-04-20T14:52:19.633Z,3.47
2019-04-20T14:54:49.791Z,3.27
2019-04-20T14:57:19.388Z,3.50
2019-04-20T14:59:53.811Z,3.43
2019-04-20T15:02:26.422Z,3.35
2019-04-20T15:04:56.972Z,3.35
2019-04-20T15:07:26.744Z,3.83
2019-04-20T15:09:57.103Z,3.67
2019-04-20T15:12:38.863Z,3.40
2019-04-20T15:14:58.758Z,3.50
2019-04-20T15:17:43.735Z,3.33
2019-04-20T15:20:33.495Z,3.37
2019-04-20T15:23:09.625Z,5.40
2019-04-20T15:25:40.244Z,7.20
2019-04-20T15:28:10.416Z,3.40
2019-04-20T15:30:40.387Z,3.97
2019-04-20T15:33:09.883Z,4.20
2019-04-20T15:35:40.072Z,3.80
2019-04-20T15:38:09.603Z,3.40
2019-04-20T15:40:39.422Z,3.70
2019-04-20T15:43:14.412Z,3.50
2019-04-20T15:45:41.238Z,3.50
2019-04-20T15:48:12.058Z,3.87
2019-04-20T15:50:45.759Z,3.93
2019-04-20T15:53:15.696Z,3.60
2019-04-20T15:55:46.979Z,3.83
2019-04-20T15:58:16.482Z,3.67
2019-04-20T16:00:46.671Z,3.90
2019-04-20T16:03:29.822Z,3.60
2019-04-20T16:06:03.437Z,4.20
2019-04-20T16:08:34.764Z,3.73
2019-04-20T16:11:04.865Z,3.20
2019-04-20T16:13:39.697Z,3.40
2019-04-20T16:16:07.695Z,3.53
2019-04-20T16:18:38.985Z,3.10
2019-04-20T16:21:14.232Z,3.37
2019-04-20T16:24:01.226Z,3.70
2019-04-20T16:26:49.699Z,3.77
2019-04-20T16:29:19.816Z,3.40
2019-04-20T16:31:50.857Z,3.60
2019-04-20T16:34:21.389Z,3.77
2019-04-20T16:36:54.397Z,3.53
2019-04-20T16:39:22.826Z,4.03
2019-04-20T16:41:52.286Z,3.70
2019-04-20T16:44:23.095Z,3.83
2019-04-20T16:46:52.628Z,4.07
2019-04-20T16:49:23.342Z,4.30
2019-04-20T16:51:52.925Z,4.20
2019-04-20T16:54:23.703Z,3.70
2019-04-20T16:56:53.354Z,4.23
2019-04-20T16:59:22.761Z,4.30
2019-04-20T17:01:52.146Z,4.63
2019-04-20T17:04:26.930Z,4.40
2019-04-20T17:07:16.516Z,4.70
2019-04-20T17:09:47.365Z,12.00
2019-04-20T17:12:17.814Z,5.70
2019-04-20T17:14:47.719Z,5.30
2019-04-20T17:17:21.849Z,5.10
2019-04-20T17:19:51.563Z,5.43
2019-04-20T17:22:21.503Z,5.60
2019-04-20T17:24:51.494Z,5.57
2019-04-20T17:27:39.104Z,5.97
2019-04-20T17:30:27.425Z,5.97
2019-04-20T17:33:00.484Z,5.90
2019-04-20T17:35:41.491Z,6.30
2019-04-20T17:38:02.804Z,6.30
2019-04-20T17:40:52.613Z,6.70
2019-04-20T17:43:11.174Z,6.93
2019-04-20T17:45:44.590Z,7.70
2019-04-20T17:48:18.591Z,7.13
2019-04-20T17:50:58.980Z,7.03
2019-04-20T17:53:29.366Z,6.07
2019-04-20T17:55:53.054Z,8.37
2019-04-20T17:58:27.940Z,5.20
2019-04-20T18:01:25.618Z,5.40
2019-04-20T18:04:16.146Z,5.37
2019-04-20T18:06:33.572Z,5.23
2019-04-20T18:09:02.163Z,5.30
2019-04-20T18:11:21.806Z,5.87
2019-04-20T18:13:58.354Z,5.90
2019-04-20T18:16:46.560Z,6.77
2019-04-20T18:19:21.728Z,6.90
2019-04-20T18:21:59.632Z,9.47
2019-04-20T18:24:49.891Z,7.93
2019-04-20T18:27:26.384Z,8.53
2019-04-20T18:29:54.517Z,8.67
2019-04-20T18:32:23.081Z,8.47
2019-04-20T18:35:00.820Z,8.33
2019-04-20T18:37:28.402Z,7.83
2019-04-20T18:40:05.091Z,8.57
2019-04-20T18:42:34.910Z,9.30
2019-04-20T18:45:17.372Z,8.63
2019-04-20T18:47:55.076Z,9.30
2019-04-20T18:50:16.520Z,10.07
2019-04-20T18:52:39.942Z,9.87
2019-04-20T18:55:17.278Z,9.37
2019-04-20T18:57:44.458Z,12.07
2019-04-20T19:00:24.582Z,10.17
2019-04-20T19:02:54.429Z,9.87
2019-04-20T19:05:24.044Z,8.93
2019-04-20T19:07:59.881Z,9.03
2019-04-20T19:10:30.865Z,8.47
2019-04-20T19:13:20.295Z,8.23
2019-04-20T19:16:13.347Z,7.97
2019-04-20T19:18:57.306Z,8.97
2019-04-20T19:21:15.227Z,8.67
2019-04-20T19:23:53.343Z,9.23
2019-04-20T19:26:20.555Z,8.10
2019-04-20T19:28:53.919Z,9.53
2019-04-20T19:31:35.136Z,9.20
2019-04-20T19:34:16.945Z,8.37
2019-04-20T19:36:31.962Z,7.77
2019-04-20T19:39:06.070Z,7.60
2019-04-20T19:41:36.264Z,8.80
2019-04-20T19:44:07.351Z,7.47
2019-04-20T19:49:08.161Z,8.00
2019-04-20T19:51:49.364Z,7.30
2019-04-20T19:54:24.011Z,7.73
2019-04-20T19:56:47.052Z,7.70
2019-04-20T19:59:12.792Z,8.20
2019-04-20T20:01:33.759Z,7.90
2019-04-20T20:04:06.402Z,8.33
2019-04-20T20:06:43.622Z,8.10
2019-04-20T20:09:11.182Z,8.77
2019-04-20T20:11:42.529Z,8.60
2019-04-20T20:14:12.992Z,8.43
2019-04-20T20:16:59.835Z,8.80
2019-04-20T20:19:29.494Z,8.63
2019-04-20T20:21:59.058Z,9.47
2019-04-20T20:24:17.417Z,9.37
2019-04-20T20:26:53.423Z,9.60
2019-04-20T20:29:27.734Z,8.93
2019-04-20T20:32:01.811Z,8.97
2019-04-20T20:34:28.759Z,8.97
2019-04-20T20:36:59.792Z,10.60
2019-04-20T20:39:28.309Z,9.47
2019-04-20T20:42:09.042Z,9.50
2019-04-20T20:44:38.242Z,9.70
2019-04-20T20:47:10.612Z,10.30
2019-04-20T20:49:47.051Z,9.37
2019-04-20T20:52:17.343Z,8.93
2019-04-20T20:54:46.319Z,9.83
2019-04-20T20:57:08.942Z,10.50
2019-04-20T20:59:46.736Z,10.73
2019-04-20T21:02:14.278Z,10.13
2019-04-20T21:04:37.703Z,9.93
2019-04-20T21:07:07.142Z,9.97
2019-04-20T21:09:37.583Z,10.37
2019-04-20T21:12:14.051Z,9.63
2019-04-20T21:14:42.158Z,10.30
2019-04-20T21:17:19.585Z,9.07
2019-04-20T21:20:02.860Z,9.37
2019-04-20T21:22:27.274Z,8.83
2019-04-20T21:24:51.467Z,8.43
2019-04-20T21:27:23.916Z,8.53
2019-04-20T21:29:57.859Z,8.93
2019-04-20T21:32:26.143Z,8.50
2019-04-20T21:35:01.571Z,8.57
2019-04-20T21:37:27.277Z,8.57
2019-04-20T21:40:00.537Z,12.67
2019-04-20T21:42:34.483Z,13.30
2019-04-20T21:45:06.981Z,11.83
2019-04-20T21:47:35.751Z,14.07
2019-04-20T21:50:17.373Z,12.60
2019-04-20T21:52:40.829Z,11.80
2019-04-20T21:55:08.021Z,11.33
2019-04-20T21:57:44.722Z,11.90
2019-04-20T22:00:23.757Z,13.83
2019-04-20T22:02:52.156Z,12.03
2019-04-20T22:05:30.363Z,12.13
2019-04-20T22:08:03.322Z,13.87
2019-04-20T22:10:31.184Z,14.33
2019-04-20T22:13:01.036Z,14.80
2019-04-20T22:15:34.534Z,15.97
2019-04-20T22:18:07.726Z,14.90
2019-04-20T22:20:46.875Z,14.00
2019-04-20T22:23:15.702Z,15.47
2019-04-20T22:25:54.523Z,14.97
2019-04-20T22:28:08.606Z,14.87
2019-04-20T22:30:38.100Z,15.83
2019-04-20T22:33:16.605Z,15.43
2019-04-20T22:35:51.570Z,15.67
2019-04-20T22:38:55.836Z,15.90
2019-04-20T22:41:26.071Z,15.53
2019-04-20T22:43:56.655Z,16.17
2019-04-20T22:46:31.744Z,16.30
2019-04-20T22:49:17.380Z,15.70
2019-04-20T22:51:46.197Z,16.40
2019-04-20T22:54:20.217Z,16.50
2019-04-20T22:56:54.024Z,17.80
2019-04-20T22:59:13.858Z,16.97
2019-04-20T23:01:46.470Z,16.70
2019-04-20T23:04:14.879Z,16.40
2019-04-20T23:06:50.129Z,17.70
2019-04-20T23:09:18.843Z,17.33
2019-04-20T23:11:53.741Z,17.57
2019-04-20T23:14:24.651Z,17.60
2019-04-20T23:16:56.135Z,17.60
2019-04-20T23:19:34.603Z,17.50
2019-04-20T23:22:01.308Z,18.10
2019-04-20T23:24:29.053Z,17.33
2019-04-20T23:26:59.464Z,16.47
2019-04-20T23:29:32.731Z,16.57
2019-04-20T23:32:04.903Z,15.20
2019-04-20T23:34:33.896Z,15.37
2019-04-20T23:37:03.015Z,14.97
2019-04-20T23:39:39.745Z,14.87
2019-04-20T23:42:07.560Z,15.17
2019-04-20T23:44:45.778Z,15.53
2019-04-20T23:47:30.062Z,14.50
2019-04-20T23:50:16.369Z,14.07
2019-04-20T23:52:53.363Z,14.80
2019-04-20T23:55:08.515Z,14.60
2019-04-20T23:57:37.738Z,13.23
